createdAt,value
2018-05-23T00:00:32.974Z,3.97
2018-05-23T00:03:01.653Z,3.80
2018-05-23T00:05:30.339Z,3.87
2018-05-23T00:07:59.963Z,4.10
2018-05-23T00:10:30.501Z,3.80
2018-05-23T00:12:59.114Z,3.87
2018-05-23T00:15:27.794Z,3.67
2018-05-23T00:17:56.416Z,3.77
2018-05-23T00:20:25.062Z,4.17
2018-05-23T00:22:53.670Z,4.75
2018-05-23T00:25:22.308Z,4.10
2018-05-23T00:27:50.948Z,4.00
2018-05-23T00:30:19.606Z,4.03
2018-05-23T00:32:48.243Z,4.23
2018-05-23T00:35:16.856Z,4.00
2018-05-23T00:37:45.493Z,3.97
2018-05-23T00:40:14.098Z,3.83
2018-05-23T00:42:42.766Z,5.15
2018-05-23T00:45:11.391Z,4.20
2018-05-23T00:47:40.046Z,4.90
2018-05-23T00:50:08.705Z,4.53
2018-05-23T00:52:37.347Z,4.40
2018-05-23T00:55:36.495Z,4.75
2018-05-23T00:58:05.118Z,3.97
2018-05-23T01:00:33.765Z,4.40
2018-05-23T01:03:02.367Z,4.43
2018-05-23T01:05:31.002Z,4.20
2018-05-23T01:07:59.657Z,4.30
2018-05-23T01:10:28.267Z,4.40
2018-05-23T01:12:56.892Z,4.43
2018-05-23T01:15:27.904Z,4.10
2018-05-23T01:17:56.525Z,4.30
2018-05-23T01:20:25.138Z,4.93
2018-05-23T01:22:56.102Z,4.50
2018-05-23T01:25:24.751Z,4.13
2018-05-23T01:27:53.418Z,4.70
2018-05-23T01:30:22.039Z,4.47
2018-05-23T01:32:51.059Z,5.00
2018-05-23T01:35:19.686Z,4.67
2018-05-23T01:38:06.316Z,4.37
2018-05-23T01:40:37.321Z,4.60
2018-05-23T01:43:05.957Z,5.10
2018-05-23T01:45:34.567Z,5.47
2018-05-23T01:48:03.217Z,4.60
2018-05-23T01:50:31.832Z,4.83
2018-05-23T01:53:00.945Z,5.00
2018-05-23T01:55:30.566Z,4.80
2018-05-23T01:57:59.734Z,5.03
2018-05-23T02:00:28.829Z,4.80
2018-05-23T02:02:57.492Z,4.53
2018-05-23T02:05:30.170Z,4.53
2018-05-23T02:07:58.831Z,5.30
2018-05-23T02:10:27.799Z,5.03
2018-05-23T02:12:56.453Z,5.00
2018-05-23T02:15:25.070Z,4.80
2018-05-23T02:17:53.712Z,4.97
2018-05-23T02:20:22.293Z,5.07
2018-05-23T02:22:50.964Z,5.23
2018-05-23T02:25:19.592Z,4.23
2018-05-23T02:27:48.221Z,4.80
2018-05-23T02:30:16.879Z,5.23
2018-05-23T02:32:45.520Z,5.80
2018-05-23T02:35:14.150Z,5.27
2018-05-23T02:37:45.777Z,5.50
2018-05-23T02:40:16.333Z,5.50
2018-05-23T02:43:02.620Z,5.13
2018-05-23T02:45:31.612Z,5.97
2018-05-23T02:48:02.262Z,5.63
2018-05-23T02:50:35.760Z,6.00
2018-05-23T02:53:06.595Z,5.83
2018-05-23T02:55:35.200Z,5.87
2018-05-23T02:58:03.899Z,5.60
2018-05-23T03:00:32.528Z,6.03
2018-05-23T03:03:03.643Z,5.50
2018-05-23T03:05:33.125Z,5.70
2018-05-23T03:08:03.817Z,5.50
2018-05-23T03:10:32.472Z,5.67
2018-05-23T03:13:03.066Z,5.90
2018-05-23T03:15:33.943Z,5.03
2018-05-23T03:18:05.205Z,5.77
2018-05-23T03:20:41.271Z,5.90
2018-05-23T03:23:09.943Z,6.00
2018-05-23T03:25:38.611Z,6.23
2018-05-23T03:28:09.382Z,6.17
2018-05-23T03:30:38.038Z,5.53
2018-05-23T03:33:06.681Z,5.90
2018-05-23T03:35:35.340Z,6.23
2018-05-23T03:38:06.740Z,6.82
2018-05-23T03:40:43.756Z,6.00
2018-05-23T03:43:12.413Z,5.77
2018-05-23T03:45:41.099Z,6.43
2018-05-23T03:48:09.831Z,5.47
2018-05-23T03:50:39.417Z,6.73
2018-05-23T03:53:10.869Z,5.33
2018-05-23T03:55:39.559Z,5.97
2018-05-23T03:58:10.888Z,6.23
2018-05-23T04:01:09.871Z,5.63
2018-05-23T04:04:15.393Z,5.63
2018-05-23T04:07:28.657Z,5.47
2018-05-23T04:10:04.586Z,6.03
2018-05-23T04:12:38.030Z,6.00
2018-05-23T04:15:09.177Z,5.93
2018-05-23T04:17:37.819Z,6.60
2018-05-23T04:20:06.481Z,6.57
2018-05-23T04:22:36.212Z,6.27
2018-05-23T04:25:04.868Z,6.30
2018-05-23T04:27:33.544Z,6.10
2018-05-23T04:30:02.229Z,6.17
2018-05-23T04:32:30.857Z,5.97
2018-05-23T04:34:59.612Z,6.00
2018-05-23T04:37:28.260Z,6.03
2018-05-23T04:39:56.890Z,6.80
2018-05-23T04:42:25.552Z,6.40
2018-05-23T04:44:54.179Z,6.00
2018-05-23T04:47:22.836Z,6.67
2018-05-23T04:49:51.473Z,6.63
2018-05-23T04:52:20.295Z,6.13
2018-05-23T04:54:48.913Z,6.47
2018-05-23T04:57:18.558Z,6.20
2018-05-23T04:59:47.178Z,6.72
2018-05-23T05:02:16.126Z,7.00
2018-05-23T05:04:44.763Z,6.57
2018-05-23T05:07:13.672Z,6.87
2018-05-23T05:09:42.289Z,6.87
2018-05-23T05:12:13.301Z,7.60
2018-05-23T05:14:41.996Z,6.40
2018-05-23T05:17:10.640Z,7.18
2018-05-23T05:19:39.344Z,5.87
2018-05-23T05:22:07.974Z,6.83
2018-05-23T05:24:38.525Z,6.70
2018-05-23T05:27:08.704Z,6.87
2018-05-23T05:29:37.379Z,6.13
2018-05-23T05:32:06.033Z,5.83
2018-05-23T05:34:34.683Z,7.10
2018-05-23T05:37:03.300Z,6.40
2018-05-23T05:39:31.965Z,6.53
2018-05-23T05:42:00.651Z,6.47
2018-05-23T05:44:29.461Z,5.93
2018-05-23T05:46:58.142Z,5.83
2018-05-23T05:49:26.809Z,6.53
2018-05-23T05:51:55.651Z,6.20
2018-05-23T05:54:24.299Z,5.55
2018-05-23T05:56:52.934Z,5.55
2018-05-23T05:59:21.558Z,5.35
2018-05-23T06:01:50.400Z,5.32
2018-05-23T06:04:19.112Z,5.62
2018-05-23T06:06:47.931Z,5.70
2018-05-23T06:09:16.556Z,5.43
2018-05-23T06:11:45.265Z,4.93
2018-05-23T06:14:14.185Z,4.55
2018-05-23T06:16:43.170Z,4.82
2018-05-23T06:19:14.042Z,4.72
2018-05-23T06:21:43.820Z,4.35
2018-05-23T06:24:12.499Z,4.68
2018-05-23T06:26:42.249Z,5.18
2018-05-23T06:29:12.955Z,4.35
2018-05-23T06:31:41.574Z,4.62
2018-05-23T06:34:16.846Z,4.18
2018-05-23T06:36:47.052Z,4.45
2018-05-23T06:39:15.642Z,4.20
2018-05-23T06:41:44.282Z,4.65
2018-05-23T06:44:14.224Z,4.95
2018-05-23T06:46:42.802Z,4.15
2018-05-23T06:49:11.473Z,4.25
2018-05-23T06:51:40.147Z,4.40
2018-05-23T06:54:08.787Z,4.18
2018-05-23T06:56:37.413Z,3.97
2018-05-23T06:59:06.060Z,4.97
2018-05-23T07:01:34.697Z,3.65
2018-05-23T07:04:03.358Z,3.45
2018-05-23T07:06:31.990Z,3.70
2018-05-23T07:09:00.630Z,3.53
2018-05-23T07:14:22.281Z,3.40
2018-05-23T07:16:58.502Z,3.22
2018-05-23T07:19:27.154Z,3.62
2018-05-23T07:21:57.970Z,2.80
2018-05-23T07:24:26.543Z,3.45
2018-05-23T07:26:56.143Z,3.28
2018-05-23T07:29:24.800Z,3.40
2018-05-23T07:31:55.716Z,3.37
2018-05-23T07:34:24.346Z,3.90
2018-05-23T07:36:52.955Z,3.60
2018-05-23T07:39:21.647Z,3.90
2018-05-23T07:42:00.997Z,2.92
2018-05-23T07:44:29.634Z,3.05
2018-05-23T07:46:58.305Z,2.95
2018-05-23T07:49:28.964Z,3.55
2018-05-23T07:51:57.703Z,3.28
2018-05-23T07:54:26.425Z,3.22
2018-05-23T07:56:55.461Z,3.25
2018-05-23T07:59:24.433Z,2.90
2018-05-23T08:01:54.647Z,2.87
2018-05-23T08:04:24.209Z,3.35
2018-05-23T08:06:54.448Z,3.37
2018-05-23T08:09:29.980Z,3.10
2018-05-23T08:12:03.096Z,3.00
2018-05-23T08:14:31.738Z,3.45
2018-05-23T08:17:00.359Z,3.35
2018-05-23T08:19:30.021Z,3.28
2018-05-23T08:21:59.120Z,3.60
2018-05-23T08:24:27.849Z,3.20
2018-05-23T08:26:56.398Z,3.17
2018-05-23T08:29:29.078Z,3.60
2018-05-23T08:31:57.702Z,3.35
2018-05-23T08:34:26.337Z,3.33
2018-05-23T08:36:55.250Z,3.12
2018-05-23T08:39:23.881Z,3.47
2018-05-23T08:41:52.484Z,3.90
2018-05-23T08:44:21.080Z,3.15
2018-05-23T08:46:49.758Z,3.85
2018-05-23T08:49:18.361Z,3.50
2018-05-23T08:51:47.381Z,3.37
2018-05-23T08:54:16.006Z,3.65
2018-05-23T08:56:44.724Z,3.70
2018-05-23T08:59:13.326Z,3.90
2018-05-23T09:01:42.020Z,3.80
2018-05-23T09:04:11.925Z,3.03
2018-05-23T09:06:44.447Z,3.75
2018-05-23T09:09:14.941Z,3.53
2018-05-23T09:11:43.903Z,3.25
2018-05-23T09:14:12.551Z,3.42
2018-05-23T09:16:43.780Z,3.40
2018-05-23T09:19:13.302Z,3.05
2018-05-23T09:21:41.993Z,2.37
2018-05-23T09:24:10.912Z,2.75
2018-05-23T09:26:40.011Z,2.90
2018-05-23T09:29:08.609Z,2.62
2018-05-23T09:31:37.250Z,3.10
2018-05-23T09:34:16.263Z,3.00
2018-05-23T09:36:46.843Z,2.47
2018-05-23T09:39:15.898Z,2.50
2018-05-23T09:41:44.848Z,2.47
2018-05-23T09:44:16.090Z,2.67
2018-05-23T09:46:45.345Z,2.90
2018-05-23T09:49:13.938Z,2.90
2018-05-23T09:51:42.730Z,2.60
2018-05-23T09:54:11.335Z,2.70
2018-05-23T09:56:40.451Z,2.45
2018-05-23T09:59:10.374Z,2.80
2018-05-23T10:01:39.197Z,2.80
2018-05-23T10:04:07.739Z,2.92
2018-05-23T10:06:38.755Z,2.53
2018-05-23T10:09:09.474Z,2.53
2018-05-23T10:11:40.041Z,2.45
2018-05-23T10:14:08.676Z,3.03
2018-05-23T10:16:37.304Z,2.75
2018-05-23T10:19:07.976Z,2.90
2018-05-23T10:21:38.640Z,2.65
2018-05-23T10:24:08.455Z,2.65
2018-05-23T10:29:25.521Z,2.50
2018-05-23T10:31:56.945Z,2.83
2018-05-23T10:34:25.155Z,2.67
2018-05-23T10:36:56.878Z,2.40
2018-05-23T10:39:25.498Z,2.60
2018-05-23T10:41:55.582Z,2.87
2018-05-23T10:44:27.019Z,2.80
2018-05-23T10:46:58.037Z,2.53
2018-05-23T10:49:26.688Z,2.72
2018-05-23T10:51:55.852Z,2.97
2018-05-23T10:54:24.469Z,2.70
2018-05-23T10:56:53.107Z,2.85
2018-05-23T10:59:21.753Z,2.77
2018-05-23T11:01:50.404Z,2.92
2018-05-23T11:04:19.388Z,2.80
2018-05-23T11:06:48.065Z,2.60
2018-05-23T11:09:21.716Z,2.60
2018-05-23T11:11:51.917Z,2.70
2018-05-23T11:14:20.548Z,3.00
2018-05-23T11:16:49.157Z,2.85
2018-05-23T11:19:18.126Z,2.67
2018-05-23T11:21:46.716Z,4.07
2018-05-23T11:24:15.341Z,2.50
2018-05-23T11:26:43.964Z,2.62
2018-05-23T11:29:12.609Z,2.87
2018-05-23T11:31:41.209Z,5.93
2018-05-23T11:34:09.833Z,2.75
2018-05-23T11:36:43.267Z,3.00
2018-05-23T11:39:12.228Z,2.67
2018-05-23T11:41:40.836Z,2.67
2018-05-23T11:44:09.540Z,3.10
2018-05-23T11:46:38.607Z,3.10
2018-05-23T11:49:09.707Z,3.20
2018-05-23T11:51:42.224Z,2.83
2018-05-23T11:54:10.870Z,3.05
2018-05-23T11:56:39.848Z,3.20
2018-05-23T11:59:08.486Z,2.85
2018-05-23T12:01:37.098Z,3.30
2018-05-23T12:04:05.720Z,2.97
2018-05-23T12:06:35.843Z,3.47
2018-05-23T12:09:04.474Z,3.30
2018-05-23T12:11:33.072Z,3.00
2018-05-23T12:14:01.745Z,3.20
2018-05-23T12:16:31.840Z,3.17
2018-05-23T12:19:00.763Z,3.33
2018-05-23T12:21:30.417Z,3.10
2018-05-23T12:23:59.082Z,2.90
2018-05-23T12:26:28.094Z,3.42
2018-05-23T12:28:57.981Z,3.12
2018-05-23T12:31:27.180Z,3.00
2018-05-23T12:33:57.339Z,2.83
2018-05-23T12:36:26.363Z,2.67
2018-05-23T12:39:00.441Z,3.33
2018-05-23T12:41:29.632Z,2.60
2018-05-23T12:43:58.872Z,3.15
2018-05-23T12:46:27.467Z,2.87
2018-05-23T12:49:08.513Z,2.50
2018-05-23T12:51:37.771Z,3.30
2018-05-23T12:54:10.139Z,2.50
2018-05-23T12:56:40.181Z,2.75
2018-05-23T12:59:14.074Z,2.60
2018-05-23T13:01:49.673Z,2.92
2018-05-23T13:04:20.023Z,2.92
2018-05-23T13:06:51.058Z,2.85
2018-05-23T13:09:20.381Z,3.08
2018-05-23T13:11:52.129Z,3.05
2018-05-23T13:14:21.499Z,2.97
2018-05-23T13:16:52.715Z,2.70
2018-05-23T13:19:30.320Z,3.00
2018-05-23T13:21:59.615Z,3.00
2018-05-23T13:24:28.802Z,3.10
2018-05-23T13:26:59.320Z,2.87
2018-05-23T13:29:31.927Z,3.25
2018-05-23T13:32:02.919Z,2.60
2018-05-23T13:34:34.525Z,3.03
2018-05-23T13:37:03.551Z,2.55
2018-05-23T13:39:33.673Z,2.80
2018-05-23T13:42:03.548Z,2.55
2018-05-23T13:44:42.381Z,2.92
2018-05-23T13:53:00.705Z,3.60
2018-05-23T13:55:32.141Z,2.60
2018-05-23T13:58:09.660Z,3.10
2018-05-23T14:00:47.237Z,3.10
2018-05-23T14:06:22.388Z,3.22
2018-05-23T14:11:53.157Z,2.75
2018-05-23T14:14:25.301Z,2.58
2018-05-23T14:16:54.735Z,3.15
2018-05-23T14:19:28.757Z,2.50
2018-05-23T14:22:02.499Z,2.37
2018-05-23T14:24:34.376Z,3.20
2018-05-23T14:29:58.657Z,3.50
2018-05-23T14:32:28.226Z,3.22
2018-05-23T14:35:03.919Z,3.00
2018-05-23T14:37:32.563Z,2.90
2018-05-23T14:40:01.225Z,2.35
2018-05-23T14:42:37.050Z,3.50
2018-05-23T14:45:05.847Z,3.00
2018-05-23T14:47:34.548Z,2.95
2018-05-23T14:50:03.558Z,2.60
2018-05-23T14:52:32.592Z,3.20
2018-05-23T14:55:01.555Z,2.87
2018-05-23T14:57:44.713Z,2.97
2018-05-23T15:00:15.055Z,2.50
2018-05-23T15:02:44.279Z,3.03
2018-05-23T15:05:24.705Z,3.17
2018-05-23T15:07:55.200Z,3.12
2018-05-23T15:10:25.357Z,3.25
2018-05-23T15:12:54.059Z,3.08
2018-05-23T15:15:22.668Z,3.80
2018-05-23T15:17:51.341Z,2.97
2018-05-23T15:20:22.906Z,3.40
2018-05-23T15:25:39.594Z,3.55
2018-05-23T15:28:08.251Z,3.30
2018-05-23T15:30:37.292Z,3.47
2018-05-23T15:33:06.598Z,3.40
2018-05-23T15:35:52.729Z,3.20
2018-05-23T15:38:28.564Z,3.30
2018-05-23T15:40:59.243Z,3.10
2018-05-23T15:43:36.853Z,2.92
2018-05-23T15:46:07.276Z,2.78
2018-05-23T15:48:43.340Z,2.97
2018-05-23T15:51:12.001Z,2.58
2018-05-23T15:53:41.260Z,3.20
2018-05-23T15:56:13.970Z,2.80
2018-05-23T15:58:46.327Z,3.17
2018-05-23T16:01:16.041Z,3.25
2018-05-23T16:03:47.990Z,3.30
2018-05-23T16:06:16.677Z,2.90
2018-05-23T16:08:46.953Z,3.05
2018-05-23T16:11:18.221Z,3.20
2018-05-23T16:13:47.957Z,3.65
2018-05-23T16:16:16.996Z,3.28
2018-05-23T16:18:49.307Z,3.15
2018-05-23T16:21:25.422Z,2.95
2018-05-23T16:23:54.235Z,3.10
2018-05-23T16:26:29.312Z,3.30
2018-05-23T16:29:02.119Z,3.17
2018-05-23T16:31:30.999Z,3.15
2018-05-23T16:34:02.362Z,3.60
2018-05-23T16:36:31.016Z,3.85
2018-05-23T16:38:59.658Z,3.12
2018-05-23T16:41:32.687Z,3.50
2018-05-23T16:44:03.784Z,3.30
2018-05-23T16:46:32.993Z,3.10
2018-05-23T16:49:01.692Z,3.28
2018-05-23T16:51:32.194Z,3.12
2018-05-23T16:54:02.188Z,2.70
2018-05-23T16:56:33.466Z,3.10
2018-05-23T16:59:05.752Z,3.20
2018-05-23T17:01:34.645Z,3.10
2018-05-23T17:04:13.257Z,2.75
2018-05-23T17:06:45.481Z,2.90
2018-05-23T17:09:17.231Z,2.87
2018-05-23T17:14:52.621Z,2.42
2018-05-23T17:17:22.331Z,2.60
2018-05-23T17:31:09.288Z,2.70
2018-05-23T17:36:25.669Z,2.37
2018-05-23T17:39:11.073Z,2.65
2018-05-23T17:50:04.145Z,2.40
2018-05-23T17:52:32.843Z,2.25
2018-05-23T17:57:57.020Z,1.90
2018-05-23T18:06:05.120Z,2.95
2018-05-23T18:11:26.107Z,2.45
2018-05-23T18:13:59.742Z,2.33
2018-05-23T18:16:32.704Z,2.10
2018-05-23T18:24:42.060Z,2.00
2018-05-23T18:32:57.613Z,2.10
2018-05-23T18:41:04.338Z,2.08
2018-05-23T18:46:21.139Z,2.20
2018-05-23T18:48:50.740Z,1.90
2018-05-23T18:51:22.433Z,2.00
2018-05-23T18:53:58.340Z,2.22
2018-05-23T18:56:28.204Z,2.20
2018-05-23T18:59:07.719Z,2.40
2018-05-23T19:01:37.926Z,2.30
2018-05-23T19:04:06.549Z,2.20
2018-05-23T19:06:43.113Z,2.00
2018-05-23T19:09:16.954Z,1.90
2018-05-23T19:11:46.326Z,1.70
2018-05-23T19:19:53.553Z,1.90
2018-05-23T19:22:24.503Z,1.92
2018-05-23T19:27:48.373Z,1.90
2018-05-23T19:30:17.350Z,2.30
2018-05-23T19:32:49.339Z,1.90
2018-05-23T19:35:22.451Z,2.00
2018-05-23T19:37:53.066Z,1.87
2018-05-23T19:40:29.113Z,1.95
2018-05-23T19:42:59.795Z,2.00
2018-05-23T19:45:31.456Z,2.10
2018-05-23T19:48:06.368Z,2.17
2018-05-23T19:56:36.034Z,2.00
2018-05-23T19:59:07.302Z,1.90
2018-05-23T20:01:36.423Z,2.15
2018-05-23T20:04:11.569Z,1.80
2018-05-23T20:06:40.779Z,2.20
2018-05-23T20:09:09.964Z,1.87
2018-05-23T20:11:38.678Z,1.90
2018-05-23T20:14:16.581Z,2.15
2018-05-23T20:16:53.067Z,1.93
2018-05-23T20:19:27.371Z,2.10
2018-05-23T20:21:58.945Z,1.90
2018-05-23T20:24:38.413Z,2.00
2018-05-23T20:29:59.850Z,1.73
2018-05-23T20:32:37.684Z,1.85
2018-05-23T20:35:15.284Z,1.98
2018-05-23T20:40:37.900Z,1.87
2018-05-23T20:43:08.563Z,2.17
2018-05-23T20:48:25.199Z,1.98
2018-05-23T20:50:54.289Z,1.52
2018-05-23T20:53:24.719Z,1.80
2018-05-23T20:55:53.342Z,1.85
2018-05-23T20:58:27.013Z,1.80
2018-05-23T21:00:56.974Z,1.73
2018-05-23T21:03:27.158Z,1.80
2018-05-23T21:05:57.128Z,1.55
2018-05-23T21:08:25.764Z,1.65
2018-05-23T21:11:02.237Z,1.62
2018-05-23T21:13:49.603Z,1.52
2018-05-23T21:16:19.242Z,1.60
2018-05-23T21:18:51.834Z,1.83
2018-05-23T21:21:26.608Z,1.60
2018-05-23T21:24:06.409Z,1.75
2018-05-23T21:26:50.845Z,1.70
2018-05-23T21:29:20.579Z,1.90
2018-05-23T21:31:49.316Z,1.42
2018-05-23T21:34:20.883Z,1.50
2018-05-23T21:36:49.909Z,1.73
2018-05-23T21:39:37.892Z,1.50
2018-05-23T21:42:07.970Z,1.83
2018-05-23T21:44:42.084Z,1.80
2018-05-23T21:47:15.968Z,1.80
2018-05-23T21:49:44.686Z,1.85
2018-05-23T21:52:15.461Z,1.80
2018-05-23T21:54:49.577Z,1.50
2018-05-23T21:57:20.294Z,1.50
2018-05-23T21:59:49.043Z,1.75
2018-05-23T22:02:19.101Z,1.40
2018-05-23T22:04:48.634Z,1.60
2018-05-23T22:10:05.350Z,1.35
2018-05-23T22:12:40.192Z,2.10
2018-05-23T22:15:15.963Z,1.80
2018-05-23T22:17:46.836Z,1.62
2018-05-23T22:20:16.993Z,1.55
2018-05-23T22:22:55.300Z,2.22
2018-05-23T22:25:26.369Z,1.90
2018-05-23T22:27:57.997Z,1.55
2018-05-23T22:30:30.732Z,2.15
2018-05-23T22:32:59.598Z,1.75
2018-05-23T22:35:29.575Z,1.80
2018-05-23T22:37:59.187Z,1.80
2018-05-23T22:40:33.168Z,1.80
2018-05-23T22:43:02.340Z,1.85
2018-05-23T22:45:31.786Z,1.77
2018-05-23T22:48:00.788Z,2.08
2018-05-23T22:50:29.861Z,1.58
2018-05-23T22:53:00.673Z,1.80
2018-05-23T22:55:29.379Z,1.60
2018-05-23T22:57:58.065Z,1.55
2018-05-23T23:00:30.982Z,2.20
2018-05-23T23:02:59.645Z,2.00
2018-05-23T23:05:29.674Z,1.73
2018-05-23T23:07:59.620Z,2.00
2018-05-23T23:10:34.002Z,2.10
2018-05-23T23:13:05.445Z,2.12
2018-05-23T23:15:37.957Z,1.90
2018-05-23T23:18:06.681Z,1.95
2018-05-23T23:20:37.267Z,2.15
2018-05-23T23:23:07.661Z,2.28
2018-05-23T23:25:43.492Z,2.30
2018-05-23T23:28:13.057Z,2.33
2018-05-23T23:30:42.813Z,2.45
2018-05-23T23:33:14.347Z,2.40
2018-05-23T23:35:43.395Z,2.37
2018-05-23T23:38:12.728Z,2.22
2018-05-23T23:40:41.377Z,2.70
2018-05-23T23:43:12.472Z,2.40
2018-05-23T23:45:41.163Z,2.37
2018-05-23T23:48:09.854Z,2.62
2018-05-23T23:50:38.581Z,2.87
2018-05-23T23:53:07.199Z,3.17
2018-05-23T23:55:38.771Z,2.90
2018-05-23T23:58:07.514Z,2.62
